createdAt,value
2018-03-27T00:01:19.079Z,29.47
2018-03-27T00:03:49.376Z,30.90
2018-03-27T00:06:25.331Z,28.23
2018-03-27T00:08:55.837Z,30.60
2018-03-27T00:11:27.281Z,31.30
2018-03-27T00:14:00.739Z,29.00
2018-03-27T00:16:32.577Z,30.50
2018-03-27T00:19:04.624Z,29.37
2018-03-27T00:21:36.403Z,29.00
2018-03-27T00:24:07.801Z,27.97
2018-03-27T00:26:56.992Z,28.77
2018-03-27T00:29:45.441Z,28.77
2018-03-27T00:32:52.914Z,28.97
2018-03-27T00:35:48.412Z,29.00
2018-03-27T00:38:42.888Z,27.13
2018-03-27T00:45:09.746Z,27.93
2018-03-27T00:47:40.373Z,29.23
2018-03-27T00:50:12.017Z,29.40
2018-03-27T00:52:44.162Z,28.77
2018-03-27T00:55:14.829Z,28.77
2018-03-27T00:57:47.873Z,27.27
2018-03-27T01:00:19.603Z,30.30
2018-03-27T01:02:52.255Z,30.77
2018-03-27T01:05:25.295Z,38.07
2018-03-27T01:07:57.049Z,38.10
2018-03-27T01:10:28.332Z,36.53
2018-03-27T01:12:59.621Z,31.97
2018-03-27T01:15:30.754Z,29.63
2018-03-27T01:18:01.380Z,28.13
2018-03-27T01:20:33.544Z,29.77
2018-03-27T01:23:06.400Z,30.80
2018-03-27T01:25:37.113Z,31.20
2018-03-27T01:28:08.443Z,31.40
2018-03-27T01:30:39.404Z,30.77
2018-03-27T01:33:11.692Z,28.07
2018-03-27T01:35:53.535Z,31.00
2018-03-27T01:38:27.179Z,29.50
2018-03-27T01:41:00.720Z,29.93
2018-03-27T01:43:31.854Z,31.50
2018-03-27T01:46:02.610Z,31.63
2018-03-27T01:48:34.964Z,29.57
2018-03-27T01:54:21.346Z,30.17
2018-03-27T01:56:52.500Z,28.70
2018-03-27T01:59:26.469Z,29.33
2018-03-27T02:05:04.845Z,30.80
2018-03-27T02:07:38.347Z,32.43
2018-03-27T02:10:12.038Z,32.27
2018-03-27T02:15:41.512Z,32.70
2018-03-27T02:18:21.331Z,33.07
2018-03-27T02:20:59.035Z,34.08
2018-03-27T02:23:29.504Z,30.97
2018-03-27T02:25:58.875Z,32.28
2018-03-27T02:28:28.469Z,32.73
2018-03-27T02:31:02.504Z,31.53
2018-03-27T02:33:35.932Z,32.15
2018-03-27T02:36:10.151Z,30.87
2018-03-27T02:38:44.819Z,32.27
2018-03-27T02:41:17.823Z,30.43
2018-03-27T02:43:55.963Z,29.70
2018-03-27T02:49:03.729Z,30.43
2018-03-27T02:51:34.744Z,29.23
2018-03-27T02:54:11.492Z,27.50
2018-03-27T02:56:47.105Z,29.27
2018-03-27T02:59:17.624Z,26.93
2018-03-27T03:01:49.241Z,28.83
2018-03-27T03:04:19.799Z,29.27
2018-03-27T03:06:49.585Z,28.10
2018-03-27T03:09:18.890Z,26.80
2018-03-27T03:11:48.250Z,27.23
2018-03-27T03:14:17.581Z,28.62
2018-03-27T03:16:46.924Z,28.50
2018-03-27T03:19:16.210Z,28.70
2018-03-27T03:21:49.470Z,29.10
2018-03-27T03:24:19.038Z,28.07
2018-03-27T03:26:48.583Z,28.93
2018-03-27T03:29:18.655Z,29.80
2018-03-27T03:31:47.978Z,29.73
2018-03-27T03:34:17.481Z,31.83
2018-03-27T03:36:46.837Z,29.43
2018-03-27T03:39:16.195Z,32.27
2018-03-27T03:41:45.696Z,30.77
2018-03-27T03:44:16.147Z,31.50
2018-03-27T03:47:02.856Z,29.40
2018-03-27T03:49:38.054Z,31.63
2018-03-27T03:52:11.854Z,31.27
2018-03-27T03:54:43.958Z,30.43
2018-03-27T03:57:14.854Z,30.03
2018-03-27T03:59:48.805Z,30.87
2018-03-27T04:02:20.629Z,30.67
2018-03-27T04:04:53.191Z,30.37
2018-03-27T04:07:26.575Z,31.58
2018-03-27T04:09:59.340Z,32.87
2018-03-27T04:12:34.572Z,31.62
2018-03-27T04:15:08.180Z,31.93
2018-03-27T04:17:38.516Z,32.33
2018-03-27T04:20:08.725Z,32.43
2018-03-27T04:22:39.762Z,31.67
2018-03-27T04:25:09.078Z,33.00
2018-03-27T04:27:38.375Z,34.60
2018-03-27T04:30:07.784Z,34.33
2018-03-27T04:32:37.147Z,32.63
2018-03-27T04:35:06.492Z,33.73
2018-03-27T04:37:35.840Z,35.17
2018-03-27T04:40:05.188Z,33.77
2018-03-27T04:42:35.234Z,33.50
2018-03-27T04:45:05.963Z,34.80
2018-03-27T04:47:35.320Z,33.67
2018-03-27T04:50:23.171Z,31.90
2018-03-27T04:52:58.632Z,32.90
2018-03-27T04:55:28.248Z,33.50
2018-03-27T04:57:57.589Z,34.05
2018-03-27T05:00:26.909Z,33.70
2018-03-27T05:02:57.027Z,32.53
2018-03-27T05:05:27.135Z,35.10
2018-03-27T05:07:56.443Z,33.70
2018-03-27T05:10:31.551Z,34.50
2018-03-27T05:13:03.761Z,35.20
2018-03-27T05:15:37.204Z,33.57
2018-03-27T05:18:09.500Z,33.20
2018-03-27T05:20:42.592Z,35.00
2018-03-27T05:23:13.054Z,32.93
2018-03-27T05:25:43.870Z,34.10
2018-03-27T05:28:13.479Z,34.93
2018-03-27T05:30:42.800Z,35.00
2018-03-27T05:33:14.725Z,35.23
2018-03-27T05:35:45.997Z,35.03
2018-03-27T05:38:16.488Z,32.97
2018-03-27T05:40:47.381Z,36.77
2018-03-27T05:43:20.662Z,34.80
2018-03-27T05:45:50.230Z,33.97
2018-03-27T05:48:22.359Z,33.33
2018-03-27T05:50:53.337Z,31.08
2018-03-27T05:53:28.681Z,32.03
2018-03-27T05:56:07.846Z,32.90
2018-03-27T05:58:41.392Z,33.37
2018-03-27T06:01:11.752Z,31.90
2018-03-27T06:03:48.130Z,32.40
2018-03-27T06:06:20.248Z,30.03
2018-03-27T06:08:53.475Z,31.73
2018-03-27T06:11:28.026Z,30.03
2018-03-27T06:14:01.324Z,30.97
2018-03-27T06:16:31.301Z,31.63
2018-03-27T06:19:02.746Z,30.40
2018-03-27T06:21:36.563Z,30.10
2018-03-27T06:24:06.059Z,33.93
2018-03-27T06:26:35.499Z,30.33
2018-03-27T06:29:04.786Z,30.97
2018-03-27T06:31:34.479Z,29.33
2018-03-27T06:34:06.552Z,28.63
2018-03-27T06:36:37.275Z,30.33
2018-03-27T06:39:07.827Z,30.20
2018-03-27T06:41:37.836Z,31.33
2018-03-27T06:44:07.162Z,29.27
2018-03-27T06:46:37.657Z,29.87
2018-03-27T06:49:07.002Z,30.27
2018-03-27T06:51:36.335Z,30.90
2018-03-27T06:54:05.766Z,29.27
2018-03-27T06:56:35.014Z,30.37
2018-03-27T06:59:04.359Z,30.50
2018-03-27T07:01:33.789Z,30.67
2018-03-27T07:04:03.131Z,30.63
2018-03-27T07:06:32.431Z,30.07
2018-03-27T07:09:01.828Z,30.90
2018-03-27T07:11:31.107Z,30.57
2018-03-27T07:14:00.469Z,31.13
2018-03-27T07:16:29.984Z,29.03
2018-03-27T07:18:59.277Z,29.77
2018-03-27T07:21:28.595Z,31.07
2018-03-27T07:23:58.293Z,30.77
2018-03-27T07:26:27.807Z,31.40
2018-03-27T07:28:57.347Z,32.03
2018-03-27T07:31:28.614Z,29.43
2018-03-27T07:33:58.066Z,30.70
2018-03-27T07:36:27.618Z,30.13
2018-03-27T07:38:56.999Z,30.07
2018-03-27T07:41:26.326Z,30.63
2018-03-27T07:43:56.547Z,32.17
2018-03-27T07:46:25.896Z,32.00
2018-03-27T07:48:55.507Z,33.73
2018-03-27T07:51:26.702Z,33.25
2018-03-27T07:53:56.014Z,32.60
2018-03-27T07:56:26.458Z,34.07
2018-03-27T07:58:56.223Z,30.90
2018-03-27T08:01:25.610Z,31.57
2018-03-27T08:03:55.514Z,32.43
2018-03-27T08:06:24.842Z,32.28
2018-03-27T08:08:54.325Z,32.83
2018-03-27T08:11:23.969Z,32.13
2018-03-27T08:13:53.285Z,34.87
2018-03-27T08:16:22.639Z,36.27
2018-03-27T08:18:53.190Z,35.83
2018-03-27T08:21:22.545Z,35.83
2018-03-27T08:23:51.849Z,31.67
2018-03-27T08:26:21.214Z,33.20
2018-03-27T08:28:51.788Z,34.00
2018-03-27T08:31:22.242Z,33.85
2018-03-27T08:33:52.887Z,33.56
2018-03-27T08:36:23.065Z,33.28
2018-03-27T08:38:53.186Z,31.77
2018-03-27T08:41:24.960Z,34.83
2018-03-27T08:43:54.300Z,31.98
2018-03-27T08:46:23.699Z,32.53
2018-03-27T08:48:53.798Z,33.30
2018-03-27T08:51:24.501Z,33.28
2018-03-27T08:53:54.196Z,30.52
2018-03-27T08:56:24.760Z,32.03
2018-03-27T08:58:54.149Z,33.03
2018-03-27T09:01:23.981Z,32.47
2018-03-27T09:03:54.264Z,31.90
2018-03-27T09:06:24.164Z,31.20
2018-03-27T09:08:55.276Z,28.25
2018-03-27T09:11:24.770Z,28.20
2018-03-27T09:13:55.966Z,30.12
2018-03-27T09:16:25.396Z,30.97
2018-03-27T09:18:54.906Z,26.80
2018-03-27T09:21:25.284Z,26.60
2018-03-27T09:23:54.698Z,25.87
2018-03-27T09:26:24.451Z,26.60
2018-03-27T09:28:55.285Z,26.37
2018-03-27T09:31:24.628Z,24.30
2018-03-27T09:33:56.194Z,23.40
2018-03-27T09:36:26.220Z,23.80
2018-03-27T09:38:57.819Z,22.13
2018-03-27T09:41:32.811Z,23.20
2018-03-27T09:44:06.313Z,21.40
2018-03-27T09:46:37.227Z,22.17
2018-03-27T09:49:07.881Z,23.63
2018-03-27T09:51:38.132Z,22.17
2018-03-27T09:54:09.666Z,22.97
2018-03-27T09:56:40.829Z,21.83
2018-03-27T09:59:11.538Z,21.30
2018-03-27T10:01:46.380Z,20.93
2018-03-27T10:04:22.330Z,17.00
2018-03-27T10:06:54.973Z,14.73
2018-03-27T10:09:24.432Z,18.10
2018-03-27T10:11:54.518Z,18.43
2018-03-27T10:14:23.856Z,16.83
2018-03-27T10:16:53.499Z,19.63
2018-03-27T10:19:23.070Z,17.50
2018-03-27T10:21:53.371Z,17.03
2018-03-27T10:24:22.732Z,15.83
2018-03-27T10:26:52.046Z,12.70
2018-03-27T10:29:22.260Z,8.70
2018-03-27T10:31:53.535Z,6.28
2018-03-27T10:34:23.558Z,7.03
2018-03-27T10:36:55.335Z,5.63
2018-03-27T10:39:26.575Z,6.70
2018-03-27T10:41:57.557Z,9.37
2018-03-27T10:44:29.940Z,8.07
2018-03-27T10:47:03.228Z,8.43
2018-03-27T10:49:32.685Z,7.93
2018-03-27T10:52:03.040Z,8.82
2018-03-27T10:54:33.254Z,8.82
2018-03-27T10:57:03.934Z,9.75
2018-03-27T10:59:33.868Z,9.13
2018-03-27T11:02:04.696Z,8.68
2018-03-27T11:04:34.081Z,8.37
2018-03-27T11:07:04.020Z,9.40
2018-03-27T11:09:34.820Z,9.55
2018-03-27T11:12:04.216Z,10.03
2018-03-27T11:14:34.284Z,9.07
2018-03-27T11:17:04.985Z,9.38
2018-03-27T11:19:34.413Z,10.47
2018-03-27T11:22:05.007Z,9.70
2018-03-27T11:24:34.373Z,9.80
2018-03-27T11:27:06.169Z,8.07
2018-03-27T11:29:35.518Z,6.73
2018-03-27T11:32:07.825Z,7.17
2018-03-27T11:34:39.239Z,7.57
2018-03-27T11:37:12.764Z,7.43
2018-03-27T11:39:46.843Z,7.33
2018-03-27T11:42:19.266Z,7.90
2018-03-27T11:44:49.429Z,7.23
2018-03-27T11:47:21.176Z,7.55
2018-03-27T11:49:50.511Z,7.20
2018-03-27T11:52:19.821Z,7.05
2018-03-27T11:54:49.208Z,7.27
2018-03-27T11:57:18.714Z,8.40
2018-03-27T11:59:48.041Z,7.60
2018-03-27T12:02:17.419Z,7.23
2018-03-27T12:04:46.711Z,7.53
2018-03-27T12:07:16.013Z,7.73
2018-03-27T12:09:45.318Z,6.53
2018-03-27T12:12:14.703Z,7.18
2018-03-27T12:14:44.034Z,7.10
2018-03-27T12:17:14.243Z,7.37
2018-03-27T12:19:43.553Z,7.33
2018-03-27T12:22:12.917Z,8.20
2018-03-27T12:24:43.014Z,8.00
2018-03-27T12:27:12.316Z,7.80
2018-03-27T12:29:41.679Z,7.80
2018-03-27T12:32:42.554Z,7.97
2018-03-27T12:35:15.479Z,8.27
2018-03-27T12:37:46.725Z,7.87
2018-03-27T12:40:18.356Z,7.53
2018-03-27T12:42:50.493Z,7.57
2018-03-27T12:45:21.436Z,7.40
2018-03-27T12:47:54.027Z,6.93
2018-03-27T12:50:24.198Z,7.57
2018-03-27T12:52:56.334Z,8.20
2018-03-27T12:55:25.976Z,8.20
2018-03-27T12:57:55.639Z,7.37
2018-03-27T13:00:25.009Z,8.17
2018-03-27T13:02:55.590Z,8.07
2018-03-27T13:05:24.930Z,8.23
2018-03-27T13:07:54.227Z,6.83
2018-03-27T13:10:23.810Z,6.60
2018-03-27T13:12:53.133Z,6.70
2018-03-27T13:15:22.463Z,6.65
2018-03-27T13:17:52.031Z,6.40
2018-03-27T13:20:21.340Z,6.62
2018-03-27T13:22:50.803Z,7.30
2018-03-27T13:25:21.065Z,7.37
2018-03-27T13:27:50.350Z,6.53
2018-03-27T13:30:19.699Z,6.90
2018-03-27T13:32:50.984Z,6.65
2018-03-27T13:35:23.592Z,6.90
2018-03-27T13:37:55.339Z,7.67
2018-03-27T13:40:27.042Z,6.47
2018-03-27T13:42:58.826Z,6.27
2018-03-27T13:45:33.788Z,5.77
2018-03-27T13:48:04.900Z,6.50
2018-03-27T13:50:37.967Z,6.63
2018-03-27T13:53:10.415Z,7.10
2018-03-27T13:55:40.374Z,7.27
2018-03-27T13:58:15.011Z,6.87
2018-03-27T14:00:48.171Z,6.80
2018-03-27T14:03:19.487Z,7.12
2018-03-27T14:05:49.971Z,7.23
2018-03-27T14:08:23.998Z,6.90
2018-03-27T14:10:55.757Z,7.17
2018-03-27T14:13:26.074Z,7.93
2018-03-27T14:15:58.694Z,8.30
2018-03-27T14:18:31.250Z,9.20
2018-03-27T14:21:03.183Z,9.80
2018-03-27T14:23:34.267Z,8.57
2018-03-27T14:26:06.235Z,6.90
2018-03-27T14:28:36.720Z,7.50
2018-03-27T14:31:06.251Z,7.17
2018-03-27T14:33:39.025Z,7.90
2018-03-27T14:36:09.643Z,8.07
2018-03-27T14:38:42.594Z,8.33
2018-03-27T14:41:13.974Z,7.60
2018-03-27T14:43:44.777Z,6.87
2018-03-27T14:46:15.802Z,7.17
2018-03-27T14:48:50.365Z,7.43
2018-03-27T14:51:21.815Z,7.73
2018-03-27T14:53:53.432Z,7.77
2018-03-27T14:56:23.938Z,7.20
2018-03-27T14:58:55.648Z,7.47
2018-03-27T15:01:28.406Z,7.77
2018-03-27T15:04:01.515Z,7.03
2018-03-27T15:06:32.082Z,7.43
2018-03-27T15:09:03.459Z,7.43
2018-03-27T15:11:34.435Z,7.23
2018-03-27T15:14:05.673Z,7.67
2018-03-27T15:16:36.693Z,7.07
2018-03-27T15:19:07.026Z,7.70
2018-03-27T15:21:37.734Z,7.53
2018-03-27T15:24:12.447Z,7.53
2018-03-27T15:26:43.514Z,7.93
2018-03-27T15:29:15.068Z,8.13
2018-03-27T15:31:46.586Z,8.20
2018-03-27T15:34:22.433Z,7.13
2018-03-27T15:40:00.273Z,8.00
2018-03-27T15:42:31.983Z,5.93
2018-03-27T15:45:03.736Z,5.43
2018-03-27T15:47:35.739Z,5.60
2018-03-27T15:50:06.173Z,6.10
2018-03-27T15:52:38.466Z,6.53
2018-03-27T15:55:11.311Z,6.83
2018-03-27T15:57:42.920Z,6.13
2018-03-27T16:00:15.776Z,6.17
2018-03-27T16:02:47.853Z,5.72
2018-03-27T16:05:23.923Z,6.47
2018-03-27T16:07:56.125Z,6.75
2018-03-27T16:10:28.562Z,7.17
2018-03-27T16:12:58.686Z,7.43
2018-03-27T16:15:30.688Z,8.13
2018-03-27T16:18:00.698Z,7.83
2018-03-27T16:20:33.724Z,8.47
2018-03-27T16:23:09.706Z,8.80
2018-03-27T16:26:01.267Z,9.00
2018-03-27T16:28:30.678Z,10.73
2018-03-27T16:31:00.099Z,10.50
2018-03-27T16:33:32.122Z,10.63
2018-03-27T16:36:08.345Z,10.50
2018-03-27T16:38:38.817Z,12.03
2018-03-27T16:41:10.619Z,10.10
2018-03-27T16:43:46.315Z,11.23
2018-03-27T16:46:21.536Z,11.53
2018-03-27T16:48:53.723Z,11.07
2018-03-27T16:51:24.219Z,10.90
2018-03-27T16:54:15.870Z,9.53
2018-03-27T16:56:45.943Z,10.90
2018-03-27T16:59:16.806Z,9.93
2018-03-27T17:01:49.462Z,10.87
2018-03-27T17:04:22.013Z,16.70
2018-03-27T17:07:03.947Z,20.57
2018-03-27T17:09:35.563Z,11.17
2018-03-27T17:12:07.215Z,12.87
2018-03-27T17:14:39.923Z,12.63
2018-03-27T17:17:09.868Z,12.20
2018-03-27T17:19:41.755Z,11.53
2018-03-27T17:22:12.605Z,10.83
2018-03-27T17:24:42.883Z,11.23
2018-03-27T17:27:14.579Z,12.33
2018-03-27T17:29:44.813Z,11.40
2018-03-27T17:32:16.503Z,11.10
2018-03-27T17:34:46.074Z,11.53
2018-03-27T17:37:15.491Z,11.73
2018-03-27T17:39:44.994Z,11.03
2018-03-27T17:42:15.363Z,11.30
2018-03-27T17:44:49.459Z,11.73
2018-03-27T17:47:21.947Z,10.67
2018-03-27T17:49:52.101Z,10.80
2018-03-27T17:52:25.569Z,10.23
2018-03-27T17:54:58.787Z,10.37
2018-03-27T17:57:30.153Z,10.82
2018-03-27T18:00:00.918Z,10.33
2018-03-27T18:02:33.557Z,11.17
2018-03-27T18:05:03.648Z,10.97
2018-03-27T18:07:34.727Z,11.00
2018-03-27T18:10:06.647Z,10.27
2018-03-27T18:12:36.907Z,11.18
2018-03-27T18:15:06.328Z,11.38
2018-03-27T18:17:36.420Z,10.83
2018-03-27T18:20:05.761Z,10.23
2018-03-27T18:22:42.143Z,9.07
2018-03-27T18:25:15.509Z,10.40
2018-03-27T18:27:46.488Z,9.03
2018-03-27T18:30:18.811Z,10.00
2018-03-27T18:32:51.093Z,10.37
2018-03-27T18:35:28.518Z,9.77
2018-03-27T18:37:59.359Z,9.50
2018-03-27T18:40:30.801Z,9.47
2018-03-27T18:45:47.885Z,9.10
2018-03-27T18:48:21.774Z,9.47
2018-03-27T18:50:54.023Z,9.40
2018-03-27T18:53:26.382Z,9.57
2018-03-27T18:55:57.971Z,9.77
2018-03-27T18:58:31.361Z,10.47
2018-03-27T19:01:05.322Z,10.77
2018-03-27T19:03:35.787Z,11.10
2018-03-27T19:06:08.848Z,11.57
2018-03-27T19:08:42.301Z,10.93
2018-03-27T19:11:12.727Z,10.73
2018-03-27T19:13:45.667Z,10.82
2018-03-27T19:16:28.437Z,11.40
2018-03-27T19:19:03.829Z,11.37
2018-03-27T19:21:35.274Z,11.90
2018-03-27T19:24:33.297Z,11.73
2018-03-27T19:27:07.059Z,11.00
2018-03-27T19:29:38.494Z,11.30
2018-03-27T19:32:10.660Z,12.00
2018-03-27T19:34:41.642Z,11.57
2018-03-27T19:37:13.158Z,11.27
2018-03-27T19:39:47.779Z,13.03
2018-03-27T19:42:20.585Z,12.50
2018-03-27T19:44:51.545Z,12.05
2018-03-27T19:47:22.513Z,10.03
2018-03-27T19:49:53.427Z,11.73
2018-03-27T19:52:28.618Z,11.53
2018-03-27T19:55:09.215Z,11.80
2018-03-27T19:57:41.264Z,11.77
2018-03-27T20:00:12.815Z,11.47
2018-03-27T20:02:47.623Z,11.65
2018-03-27T20:05:19.530Z,11.38
2018-03-27T20:07:49.717Z,12.73
2018-03-27T20:10:21.768Z,12.20
2018-03-27T20:12:52.620Z,12.40
2018-03-27T20:15:24.666Z,12.83
2018-03-27T20:18:13.428Z,13.57
2018-03-27T20:20:45.605Z,14.20
2018-03-27T20:23:17.180Z,14.37
2018-03-27T20:25:47.549Z,14.30
2018-03-27T20:28:19.734Z,14.90
2018-03-27T20:33:49.249Z,12.90
2018-03-27T20:36:21.213Z,13.50
2018-03-27T20:38:54.773Z,12.77
2018-03-27T20:41:27.004Z,14.13
2018-03-27T20:44:00.401Z,13.33
2018-03-27T20:46:32.725Z,12.47
2018-03-27T20:49:05.611Z,13.90
2018-03-27T20:51:37.809Z,14.43
2018-03-27T20:54:08.980Z,15.63
2018-03-27T20:56:42.344Z,13.33
2018-03-27T20:59:15.862Z,14.57
2018-03-27T21:01:46.499Z,15.20
2018-03-27T21:04:19.026Z,14.73
2018-03-27T21:06:52.959Z,14.83
2018-03-27T21:09:25.474Z,13.97
2018-03-27T21:11:56.603Z,14.67
2018-03-27T21:14:29.946Z,14.77
2018-03-27T21:17:00.558Z,15.90
2018-03-27T21:19:32.872Z,16.40
2018-03-27T21:22:05.773Z,15.93
2018-03-27T21:24:37.039Z,14.97
2018-03-27T21:27:08.536Z,14.60
2018-03-27T21:29:40.808Z,15.20
2018-03-27T21:32:14.603Z,16.20
2018-03-27T21:34:44.986Z,15.27
2018-03-27T21:37:25.515Z,14.68
2018-03-27T21:40:00.764Z,14.00
2018-03-27T21:42:32.188Z,15.53
2018-03-27T21:45:09.052Z,13.80
2018-03-27T21:47:39.704Z,13.53
2018-03-27T21:50:10.943Z,15.33
2018-03-27T21:52:41.634Z,15.23
2018-03-27T21:55:12.982Z,15.57
2018-03-27T21:57:49.975Z,15.15
2018-03-27T22:00:22.712Z,15.77
2018-03-27T22:02:56.160Z,16.03
2018-03-27T22:05:27.204Z,18.00
2018-03-27T22:08:01.351Z,15.30
2018-03-27T22:10:33.375Z,16.07
2018-03-27T22:13:07.849Z,16.03
2018-03-27T22:15:40.948Z,15.73
2018-03-27T22:18:13.016Z,17.07
2018-03-27T22:20:44.506Z,16.73
2018-03-27T22:23:14.821Z,15.90
2018-03-27T22:25:45.857Z,15.40
2018-03-27T22:28:16.606Z,16.17
2018-03-27T22:30:49.053Z,15.50
2018-03-27T22:33:20.150Z,16.73
2018-03-27T22:35:51.097Z,15.73
2018-03-27T22:38:21.500Z,15.40
2018-03-27T22:40:52.733Z,16.70
2018-03-27T22:43:28.497Z,15.53
2018-03-27T22:46:05.098Z,16.07
2018-03-27T22:48:36.183Z,16.40
2018-03-27T22:51:06.864Z,16.67
2018-03-27T22:53:37.337Z,17.17
2018-03-27T22:56:09.950Z,17.46
2018-03-27T22:58:41.650Z,16.73
2018-03-27T23:01:13.345Z,16.90
2018-03-27T23:03:49.816Z,16.47
2018-03-27T23:06:21.879Z,18.17
2018-03-27T23:08:53.945Z,18.77
2018-03-27T23:11:24.762Z,17.40
2018-03-27T23:13:57.276Z,17.43
2018-03-27T23:16:28.896Z,17.27
2018-03-27T23:19:01.405Z,17.10
2018-03-27T23:21:32.049Z,17.27
2018-03-27T23:24:05.368Z,17.23
2018-03-27T23:26:40.814Z,16.47
2018-03-27T23:29:17.651Z,17.03
2018-03-27T23:32:14.363Z,16.60
2018-03-27T23:34:46.689Z,19.27
2018-03-27T23:37:41.581Z,18.67
2018-03-27T23:40:14.036Z,16.97
2018-03-27T23:42:48.399Z,17.25
2018-03-27T23:45:20.115Z,19.80
2018-03-27T23:47:56.298Z,18.77
2018-03-27T23:50:27.538Z,17.80
2018-03-27T23:53:00.668Z,17.13
2018-03-27T23:55:32.947Z,18.37
2018-03-27T23:58:04.386Z,16.93
